createdAt,value
2019-01-23T00:07:31.874Z,944.9
2019-01-23T00:17:35.185Z,944.9
2019-01-23T00:27:38.550Z,944.7
2019-01-23T00:37:41.871Z,944.5
2019-01-23T00:47:45.234Z,944.3
2019-01-23T00:57:48.584Z,944.3
2019-01-23T01:07:51.942Z,944.3
2019-01-23T01:17:55.254Z,944
2019-01-23T01:27:58.598Z,943.7
2019-01-23T01:38:01.913Z,943.6
2019-01-23T01:48:05.256Z,943.5
2019-01-23T01:58:10.590Z,943.4
2019-01-23T02:08:13.932Z,943.1
2019-01-23T02:18:17.256Z,943
2019-01-23T02:28:20.595Z,942.9
2019-01-23T02:38:23.911Z,942.7
2019-01-23T02:48:27.245Z,942.7
2019-01-23T02:58:30.567Z,942.5
2019-01-23T03:08:33.933Z,942.4
2019-01-23T03:18:37.261Z,942.3
2019-01-23T03:28:40.591Z,942.1
2019-01-23T03:38:43.926Z,942
2019-01-23T03:48:47.247Z,942
2019-01-23T03:58:50.610Z,941.8
2019-01-23T04:08:53.972Z,941.6
2019-01-23T04:18:57.451Z,941.6
2019-01-23T04:29:00.974Z,941.4
2019-01-23T04:39:04.468Z,941.1
2019-01-23T04:49:07.963Z,940.9
2019-01-23T04:59:11.488Z,940.6
2019-01-23T05:09:15.018Z,940.2
2019-01-23T05:19:18.684Z,939.9
2019-01-23T05:29:22.357Z,939.8
2019-01-23T05:39:26.038Z,939.3
2019-01-23T05:49:29.720Z,939.1
2019-01-23T05:59:33.395Z,938.9
2019-01-23T06:09:37.121Z,938.7
2019-01-23T06:19:40.748Z,938.6
2019-01-23T06:29:44.459Z,941.2
2019-01-23T06:39:48.138Z,939.6
2019-01-23T06:49:51.812Z,939
2019-01-23T06:59:55.481Z,938.8
2019-01-23T07:09:59.143Z,938.6
2019-01-23T07:20:02.778Z,938.4
2019-01-23T07:30:06.454Z,938.3
2019-01-23T07:40:09.999Z,938
2019-01-23T07:50:13.517Z,937.9
2019-01-23T08:00:17.290Z,944.7
2019-01-23T08:10:20.973Z,944.9
2019-01-23T08:20:24.633Z,937.9
2019-01-23T08:30:28.312Z,937.8
2019-01-23T08:40:31.982Z,937.8
2019-01-23T08:50:35.663Z,937.8
2019-01-23T09:00:46.593Z,938
2019-01-23T09:10:50.292Z,938.3
2019-01-23T09:20:53.947Z,938.4
2019-01-23T09:30:57.625Z,938.4
2019-01-23T09:41:01.298Z,938.4
2019-01-23T09:51:04.970Z,938.3
2019-01-23T10:01:08.644Z,938.1
2019-01-23T10:11:12.322Z,938
2019-01-23T10:21:15.985Z,937.7
2019-01-23T10:31:19.648Z,937.6
2019-01-23T10:41:23.334Z,937.6
2019-01-23T10:51:27.002Z,937.5
2019-01-23T11:01:30.692Z,937.6
2019-01-23T11:11:34.359Z,937.7
2019-01-23T11:21:38.048Z,937.7
2019-01-23T11:31:41.717Z,937.6
2019-01-23T11:41:45.400Z,937.4
2019-01-23T11:51:49.071Z,937.2
2019-01-23T12:01:52.746Z,937.3
2019-01-23T12:11:56.432Z,937.4
2019-01-23T12:22:00.097Z,937.2
2019-01-23T12:32:03.776Z,937
2019-01-23T12:42:07.452Z,936.8
2019-01-23T12:52:11.134Z,936.5
2019-01-23T13:02:14.813Z,936.4
2019-01-23T13:12:18.491Z,943.2
2019-01-23T13:22:22.138Z,943.3
2019-01-23T13:32:25.812Z,943.1
2019-01-23T13:42:29.480Z,936.8
2019-01-23T13:52:33.164Z,937.1
2019-01-23T14:02:36.828Z,937.5
2019-01-23T14:12:40.519Z,937.4
2019-01-23T14:22:44.206Z,937.7
2019-01-23T14:32:47.891Z,937.8
2019-01-23T14:42:51.558Z,937.8
2019-01-23T14:52:55.231Z,938
2019-01-23T15:02:58.942Z,938.2
2019-01-23T15:13:02.593Z,938.3
2019-01-23T15:23:06.270Z,938.4
2019-01-23T15:33:40.258Z,938.6
2019-01-23T15:43:43.927Z,938.9
2019-01-23T15:53:47.570Z,939
2019-01-23T16:03:51.235Z,939.1
2019-01-23T16:13:54.921Z,939.2
2019-01-23T16:23:58.593Z,939.4
2019-01-23T16:34:02.228Z,939.6
2019-01-23T16:44:05.907Z,939.9
2019-01-23T16:54:09.586Z,939.9
2019-01-23T17:04:13.249Z,940.1
2019-01-23T17:14:16.904Z,940.5
